Time;durP1;ratioP1;P1;durP2;ratioP2;P2;SDS_P1;SDS_P2;PMS_P1;PMS_P2;Temp;Humidity;BMP_temperature;BMP_pressure;BME280_temperature;BME280_humidity;BME280_pressure;Samples;Min_cycle;Max_cycle;Signal;HPM_P1;HPM_P2
2022/10/02 00:01:10;;;;;;;17.97;3.40;;;13.90;99.90;;;;;;5116721;27;20415;-77
2022/10/02 00:03:57;;;;;;;21.80;4.17;;;14.00;99.90;;;;;;5123223;27;20446;-77
2022/10/02 00:06:47;;;;;;;9.50;2.90;;;14.10;99.90;;;;;;5105867;27;20464;-77
2022/10/02 00:09:38;;;;;;;10.27;4.17;;;14.10;99.90;;;;;;5106042;27;20435;-76
2022/10/02 00:12:29;;;;;;;10.23;3.07;;;14.10;99.90;;;;;;5117052;27;20799;-77
2022/10/02 00:15:20;;;;;;;9.67;4.00;;;14.10;99.90;;;;;;5111913;28;20407;-77
2022/10/02 00:18:11;;;;;;;6.70;2.90;;;14.00;99.90;;;;;;5106275;27;20461;-76
2022/10/02 00:21:04;;;;;;;10.33;3.07;;;14.10;99.90;;;;;;5112691;27;20411;-76
2022/10/02 00:23:53;;;;;;;9.50;4.20;;;14.00;99.90;;;;;;5110958;28;20472;-76
2022/10/02 00:26:46;;;;;;;8.13;3.47;;;14.00;99.90;;;;;;5107784;28;20763;-76
2022/10/02 00:29:41;;;;;;;11.07;3.60;;;14.10;99.90;;;;;;5106205;28;20493;-76
2022/10/02 00:32:35;;;;;;;10.97;3.20;;;14.00;99.90;;;;;;5114294;28;20433;-76
2022/10/02 00:35:55;;;;;;;8.77;2.97;;;14.00;99.90;;;;;;5109340;28;20423;-75
2022/10/02 00:38:52;;;;;;;9.47;3.83;;;14.00;99.90;;;;;;5104084;27;20660;-76
2022/10/02 00:42:01;;;;;;;6.17;2.87;;;14.00;99.90;;;;;;5115929;27;20543;-75
2022/10/02 00:45:17;;;;;;;29.23;4.30;;;14.00;99.90;;;;;;5118711;27;20454;-76
2022/10/02 00:48:16;;;;;;;12.03;3.00;;;13.90;99.90;;;;;;5100435;28;20442;-75
2022/10/02 00:51:13;;;;;;;17.57;4.13;;;14.00;99.90;;;;;;5116098;28;20412;-76
2022/10/02 00:54:13;;;;;;;9.70;3.30;;;14.00;99.90;;;;;;5116261;28;20407;-75
2022/10/02 00:57:08;;;;;;;8.70;2.80;;;13.90;99.90;;;;;;5115917;28;20480;-76
2022/10/02 01:00:04;;;;;;;5.50;2.43;;;13.90;99.90;;;;;;5116719;28;20548;-76
2022/10/02 01:03:00;;;;;;;8.67;3.00;;;13.90;99.90;;;;;;5107805;28;20419;-76
2022/10/02 01:05:46;;;;;;;8.23;2.83;;;13.90;99.90;;;;;;5112574;28;20453;-76
2022/10/02 01:08:35;;;;;;;11.00;3.70;;;13.90;99.90;;;;;;5106087;27;21000;-76
2022/10/02 01:11:21;;;;;;;8.10;2.90;;;13.90;99.90;;;;;;5115185;27;20481;-76
2022/10/02 01:14:07;;;;;;;14.60;3.20;;;13.90;99.90;;;;;;5128327;27;20427;-76
2022/10/02 01:16:53;;;;;;;10.83;3.03;;;13.90;99.90;;;;;;5117928;27;20432;-75
2022/10/02 01:19:41;;;;;;;14.50;3.80;;;13.80;99.90;;;;;;5118388;27;20940;-76
2022/10/02 01:22:33;;;;;;;8.03;2.70;;;13.80;99.90;;;;;;5114168;27;20421;-76
2022/10/02 01:25:21;;;;;;;11.87;3.00;;;13.80;99.90;;;;;;5111028;27;21037;-76
2022/10/02 01:28:07;;;;;;;9.03;2.57;;;13.80;99.90;;;;;;5103167;27;20465;-76
2022/10/02 01:30:57;;;;;;;14.27;3.60;;;13.80;99.90;;;;;;5116115;27;20485;-76
2022/10/02 01:33:47;;;;;;;13.23;3.30;;;13.80;99.90;;;;;;5113328;27;20533;-76
2022/10/02 01:36:33;;;;;;;10.77;3.07;;;13.80;99.90;;;;;;5097773;27;20416;-76
2022/10/02 01:39:18;;;;;;;8.53;3.07;;;13.80;99.90;;;;;;5109366;27;20439;-75
2022/10/02 01:42:05;;;;;;;7.73;2.43;;;13.70;99.90;;;;;;5122802;27;20980;-76
2022/10/02 01:44:52;;;;;;;16.30;2.80;;;13.70;99.90;;;;;;5114483;27;20443;-76
2022/10/02 01:47:44;;;;;;;11.47;2.90;;;13.70;99.90;;;;;;5102878;28;20436;-76
2022/10/02 01:50:39;;;;;;;11.93;3.27;;;13.80;99.90;;;;;;5105586;27;20433;-76
2022/10/02 01:53:33;;;;;;;9.30;2.50;;;13.80;99.90;;;;;;5119087;27;20931;-75
2022/10/02 01:56:29;;;;;;;11.00;2.97;;;13.90;99.90;;;;;;5108017;27;20411;-76
2022/10/02 01:59:23;;;;;;;6.77;2.23;;;13.80;99.90;;;;;;5109659;27;20996;-76
2022/10/02 02:02:17;;;;;;;11.60;2.50;;;13.80;99.90;;;;;;5111807;27;20452;-75
2022/10/02 02:05:09;;;;;;;12.60;2.47;;;13.80;99.90;;;;;;5107740;28;20594;-76
2022/10/02 02:08:04;;;;;;;8.80;2.90;;;13.80;99.90;;;;;;5101518;28;20435;-76
2022/10/02 02:10:55;;;;;;;9.03;2.73;;;13.80;99.90;;;;;;5125867;27;20448;-75
2022/10/02 02:13:46;;;;;;;21.00;3.53;;;13.90;99.90;;;;;;5111042;27;20427;-76
2022/10/02 02:16:40;;;;;;;6.83;2.20;;;13.90;99.90;;;;;;5100058;27;20427;-76
2022/10/02 02:19:31;;;;;;;10.00;2.90;;;13.90;99.90;;;;;;5111933;27;20853;-76
2022/10/02 02:22:23;;;;;;;15.47;3.07;;;13.80;99.90;;;;;;5114515;27;20428;-76
2022/10/02 02:25:13;;;;;;;9.47;2.70;;;13.90;99.90;;;;;;5117616;27;20463;-76
2022/10/02 02:28:03;;;;;;;7.30;2.33;;;13.90;99.90;;;;;;5113853;27;20566;-75
2022/10/02 02:30:52;;;;;;;7.80;2.93;;;13.90;99.90;;;;;;5106896;27;20449;-75
2022/10/02 02:33:44;;;;;;;8.93;2.17;;;13.90;99.90;;;;;;5104497;27;20435;-76
2022/10/02 02:36:36;;;;;;;11.40;3.23;;;13.90;99.90;;;;;;5107282;27;20445;-76
2022/10/02 02:39:28;;;;;;;9.07;3.40;;;14.00;99.90;;;;;;5123044;27;20423;-76
2022/10/02 02:42:16;;;;;;;8.40;2.80;;;14.00;99.90;;;;;;5119189;27;20730;-76
2022/10/02 02:45:06;;;;;;;6.63;2.50;;;14.00;99.90;;;;;;5117179;27;21030;-76
2022/10/02 02:47:53;;;;;;;11.63;2.90;;;13.90;99.90;;;;;;5109127;27;20415;-76
2022/10/02 02:50:47;;;;;;;10.73;2.60;;;13.80;99.90;;;;;;5115213;27;20486;-76
2022/10/02 02:53:37;;;;;;;7.10;2.10;;;13.90;99.90;;;;;;5115997;27;21068;-75
2022/10/02 02:56:27;;;;;;;12.77;3.70;;;13.80;99.90;;;;;;5107269;27;20437;-76
2022/10/02 02:59:14;;;;;;;5.67;2.70;;;13.80;99.90;;;;;;5112971;27;20575;-76
2022/10/02 03:02:00;;;;;;;8.07;2.80;;;13.90;99.90;;;;;;5107560;27;20939;-75
2022/10/02 03:04:46;;;;;;;6.83;2.40;;;13.90;99.90;;;;;;5114575;27;20451;-76
2022/10/02 03:07:34;;;;;;;16.37;2.90;;;13.90;99.90;;;;;;5113366;27;20415;-76
2022/10/02 03:10:30;;;;;;;14.10;3.23;;;13.90;99.90;;;;;;5111014;27;20457;-76
2022/10/02 03:13:28;;;;;;;5.03;3.07;;;13.90;99.90;;;;;;5120524;27;20472;-76
2022/10/02 03:16:24;;;;;;;11.57;3.30;;;13.90;99.90;;;;;;5104190;27;20451;-76
2022/10/02 03:19:20;;;;;;;16.43;4.37;;;13.90;99.90;;;;;;5114648;27;20487;-76
2022/10/02 03:22:12;;;;;;;14.10;3.23;;;13.90;99.90;;;;;;5112111;27;20498;-76
2022/10/02 03:25:07;;;;;;;7.50;3.27;;;14.00;99.90;;;;;;5110039;27;20464;-75
2022/10/02 03:28:02;;;;;;;11.23;3.10;;;13.90;99.90;;;;;;5119965;27;20540;-76
2022/10/02 03:30:50;;;;;;;11.67;4.30;;;13.90;99.90;;;;;;5118603;27;20538;-76
2022/10/02 03:33:38;;;;;;;10.43;3.50;;;13.90;99.90;;;;;;5111405;27;20803;-76
2022/10/02 03:36:24;;;;;;;13.73;3.70;;;14.00;99.90;;;;;;5105540;27;20919;-76
2022/10/02 03:39:10;;;;;;;12.00;4.40;;;14.00;99.90;;;;;;5111676;27;20456;-76
2022/10/02 03:41:57;;;;;;;11.27;3.50;;;14.00;99.90;;;;;;5110916;27;20469;-76
2022/10/02 03:44:43;;;;;;;12.47;4.10;;;14.00;99.90;;;;;;5114095;27;20627;-76
2022/10/02 03:47:29;;;;;;;7.70;3.10;;;14.00;99.90;;;;;;5103661;27;20931;-76
2022/10/02 03:50:15;;;;;;;7.90;3.23;;;14.10;99.90;;;;;;5120606;27;20527;-76
2022/10/02 03:53:01;;;;;;;11.47;3.13;;;14.10;99.90;;;;;;5113670;27;20558;-76
2022/10/02 03:55:52;;;;;;;13.17;3.67;;;14.10;99.90;;;;;;5108240;27;20419;-76
2022/10/02 03:58:46;;;;;;;14.90;4.93;;;14.00;99.90;;;;;;5109346;27;20459;-76
2022/10/02 04:01:35;;;;;;;22.37;3.60;;;14.00;99.90;;;;;;5117580;27;20435;-76
2022/10/02 04:04:26;;;;;;;11.50;4.17;;;14.10;99.90;;;;;;5106174;27;20443;-76
2022/10/02 04:07:17;;;;;;;9.87;3.87;;;14.00;99.90;;;;;;5106711;27;21042;-76
2022/10/02 04:10:23;;;;;;;17.03;3.90;;;14.10;99.90;;;;;;5107945;27;20570;-76
2022/10/02 04:13:14;;;;;;;11.07;3.67;;;14.10;99.90;;;;;;5112296;27;21026;-76
2022/10/02 04:16:09;;;;;;;13.90;3.57;;;14.00;99.90;;;;;;5104727;27;20411;-76
2022/10/02 04:18:58;;;;;;;13.60;3.53;;;13.90;99.90;;;;;;5113923;27;20923;-76
2022/10/02 04:21:48;;;;;;;12.00;3.33;;;13.90;99.90;;;;;;5113537;27;20505;-76
2022/10/02 04:24:41;;;;;;;17.13;3.80;;;13.90;99.90;;;;;;5107703;27;22012;-76
2022/10/02 04:27:34;;;;;;;15.13;3.20;;;14.00;99.90;;;;;;5120858;27;20447;-76
2022/10/02 04:30:21;;;;;;;13.53;3.80;;;14.00;99.90;;;;;;5103812;28;20468;-76
2022/10/02 04:33:12;;;;;;;16.03;4.00;;;14.00;99.90;;;;;;5107743;28;20444;-75
2022/10/02 04:36:09;;;;;;;18.80;3.60;;;14.00;99.90;;;;;;5109716;28;20427;-76
2022/10/02 04:39:12;;;;;;;9.73;3.40;;;14.00;99.90;;;;;;5114652;28;20444;-76
2022/10/02 04:42:14;;;;;;;9.33;3.10;;;14.00;99.90;;;;;;5109663;28;20443;-75
2022/10/02 04:45:32;;;;;;;12.07;3.07;;;14.00;99.90;;;;;;5111649;27;20476;-76
2022/10/02 04:48:39;;;;;;;11.03;3.33;;;14.00;99.90;;;;;;5116034;27;20452;-75
2022/10/02 04:51:41;;;;;;;12.57;3.80;;;14.00;99.90;;;;;;5118921;27;20418;-76
2022/10/02 04:54:44;;;;;;;21.47;3.77;;;13.90;99.90;;;;;;5108164;27;20413;-75
2022/10/02 04:57:56;;;;;;;14.80;4.33;;;13.90;99.90;;;;;;5110871;27;20445;-76
2022/10/02 05:00:47;;;;;;;10.80;3.23;;;13.90;99.90;;;;;;5114945;27;20875;-76
2022/10/02 05:03:45;;;;;;;12.20;2.93;;;13.90;99.90;;;;;;5113042;27;20418;-75
2022/10/02 05:06:49;;;;;;;5.17;2.90;;;14.00;99.90;;;;;;5121934;27;20557;-76
2022/10/02 05:09:40;;;;;;;12.47;3.53;;;14.00;99.90;;;;;;5114728;27;20451;-76
2022/10/02 05:12:42;;;;;;;12.40;2.93;;;13.90;99.90;;;;;;5117048;27;20440;-76
2022/10/02 05:15:49;;;;;;;11.60;2.77;;;14.00;99.90;;;;;;5109842;27;20414;-76
2022/10/02 05:19:00;;;;;;;16.87;3.23;;;14.00;99.90;;;;;;5119560;27;20480;-76
2022/10/02 05:22:02;;;;;;;12.47;4.00;;;14.10;99.90;;;;;;5111218;27;20447;-75
2022/10/02 05:25:02;;;;;;;12.90;3.10;;;14.00;99.90;;;;;;5103163;28;20464;-76
2022/10/02 05:28:08;;;;;;;7.00;2.67;;;14.00;99.90;;;;;;5116929;27;20433;-76
2022/10/02 05:31:06;;;;;;;16.80;3.17;;;14.00;99.90;;;;;;5124476;27;20491;-76
2022/10/02 05:34:11;;;;;;;13.20;3.20;;;14.00;99.90;;;;;;5107562;27;20449;-75
2022/10/02 05:37:08;;;;;;;14.07;3.03;;;14.00;99.90;;;;;;5113970;27;20439;-76
2022/10/02 05:40:00;;;;;;;14.20;2.67;;;14.10;99.90;;;;;;5117123;27;20449;-76
2022/10/02 05:42:53;;;;;;;9.77;3.53;;;14.10;99.90;;;;;;5118122;27;20419;-75
2022/10/02 05:45:44;;;;;;;11.47;3.83;;;14.10;99.90;;;;;;5108262;27;20480;-76
2022/10/02 05:48:34;;;;;;;16.30;2.90;;;14.10;99.90;;;;;;5114699;27;20456;-76
2022/10/02 05:51:37;;;;;;;13.30;3.30;;;14.10;99.90;;;;;;5117070;27;21072;-76
2022/10/02 05:54:36;;;;;;;9.53;3.90;;;14.10;99.90;;;;;;5102495;27;20453;-76
2022/10/02 05:57:27;;;;;;;13.03;3.80;;;14.00;99.90;;;;;;5119132;27;20416;-76
2022/10/02 06:00:28;;;;;;;16.23;3.77;;;14.00;99.90;;;;;;5115695;27;20439;-76
2022/10/02 06:03:22;;;;;;;14.77;3.33;;;14.00;99.90;;;;;;5107023;27;20483;-76
2022/10/02 06:06:14;;;;;;;11.03;2.67;;;14.00;99.90;;;;;;5118727;27;20446;-75
2022/10/02 06:09:08;;;;;;;12.07;3.20;;;14.00;99.90;;;;;;5128446;27;20422;-76
2022/10/02 06:11:59;;;;;;;5.53;2.70;;;14.00;99.90;;;;;;5115501;27;20501;-76
2022/10/02 06:14:50;;;;;;;9.33;2.60;;;14.00;99.90;;;;;;5103617;27;20425;-76
2022/10/02 06:17:41;;;;;;;10.03;2.90;;;14.00;99.90;;;;;;5111781;27;20423;-76
2022/10/02 06:20:30;;;;;;;5.60;2.30;;;14.00;99.90;;;;;;5115983;27;20451;-76
2022/10/02 06:23:20;;;;;;;8.20;2.30;;;14.00;99.90;;;;;;5107068;27;20433;-77
2022/10/02 06:26:13;;;;;;;9.80;2.40;;;14.10;99.90;;;;;;5114959;27;20951;-76
2022/10/02 06:29:02;;;;;;;10.53;3.10;;;14.00;99.90;;;;;;5116334;27;20472;-76
2022/10/02 06:31:54;;;;;;;9.47;2.70;;;14.10;99.90;;;;;;5115433;27;20441;-76
2022/10/02 06:34:40;;;;;;;5.30;2.23;;;14.00;99.90;;;;;;5101996;27;20445;-76
2022/10/02 06:37:48;;;;;;;11.00;2.90;;;14.00;99.90;;;;;;5111423;27;20441;-76
2022/10/02 06:40:50;;;;;;;8.90;2.93;;;14.00;99.90;;;;;;5117093;27;20460;-76
2022/10/02 06:43:54;;;;;;;11.30;3.53;;;14.10;99.90;;;;;;5096796;27;20452;-76
2022/10/02 06:46:46;;;;;;;8.73;2.20;;;14.10;99.90;;;;;;5114893;27;20468;-76
2022/10/02 06:49:46;;;;;;;5.77;2.17;;;14.00;99.90;;;;;;5115134;27;21014;-76
2022/10/02 06:52:41;;;;;;;6.97;2.63;;;14.00;99.90;;;;;;5104735;27;20745;-77
2022/10/02 06:55:42;;;;;;;7.43;2.80;;;14.00;99.90;;;;;;5115815;27;20797;-76
2022/10/02 06:58:46;;;;;;;13.03;3.43;;;13.90;99.90;;;;;;5106191;27;20518;-76
2022/10/02 07:01:45;;;;;;;16.70;3.30;;;13.90;99.90;;;;;;5108922;28;20775;-77
2022/10/02 07:04:44;;;;;;;8.90;3.10;;;14.00;99.90;;;;;;5113986;27;20418;-76
2022/10/02 07:07:48;;;;;;;13.13;3.60;;;14.00;99.90;;;;;;5106141;27;20415;-76
2022/10/02 07:10:37;;;;;;;10.40;4.10;;;14.00;99.90;;;;;;5115015;27;20917;-77
2022/10/02 07:13:47;;;;;;;11.30;5.97;;;14.00;99.90;;;;;;5104736;27;20414;-76
2022/10/02 07:16:50;;;;;;;13.40;3.30;;;14.00;99.90;;;;;;5112750;27;20427;-77
2022/10/02 07:20:05;;;;;;;3.30;2.10;;;14.00;99.90;;;;;;5109403;27;20609;-77
2022/10/02 07:23:16;;;;;;;7.40;3.07;;;14.10;99.90;;;;;;5108992;27;20462;-76
2022/10/02 07:26:24;;;;;;;4.30;2.90;;;14.00;99.90;;;;;;5111716;27;20443;-76
2022/10/02 07:29:33;;;;;;;8.00;4.70;;;14.10;99.90;;;;;;5110504;27;20518;-76
2022/10/02 07:32:46;;;;;;;8.60;4.37;;;14.10;99.90;;;;;;5110818;27;20451;-75
2022/10/02 07:35:40;;;;;;;5.13;4.60;;;14.10;99.90;;;;;;5104701;28;20451;-76
2022/10/02 07:39:05;;;;;;;7.63;4.20;;;14.10;99.90;;;;;;5115199;27;20442;-76
2022/10/02 07:42:35;;;;;;;4.73;2.03;;;14.00;99.90;;;;;;5095798;28;20800;-76
2022/10/02 07:45:34;;;;;;;7.00;2.97;;;14.00;99.90;;;;;;5101930;27;20578;-76
2022/10/02 07:48:44;;;;;;;9.43;2.77;;;13.90;99.90;;;;;;5114956;27;20830;-76
2022/10/02 07:51:49;;;;;;;7.17;2.87;;;13.90;99.90;;;;;;5107998;27;20426;-76
2022/10/02 07:54:59;;;;;;;5.27;2.40;;;13.90;99.90;;;;;;5104065;27;20569;-76
2022/10/02 07:57:55;;;;;;;6.33;2.83;;;13.90;99.90;;;;;;5114007;27;20458;-76
2022/10/02 08:00:47;;;;;;;7.80;2.50;;;13.90;99.90;;;;;;5110597;27;20523;-77
2022/10/02 08:03:36;;;;;;;3.60;2.00;;;13.90;99.90;;;;;;5106121;27;20414;-76
2022/10/02 08:06:23;;;;;;;4.43;1.73;;;13.90;99.90;;;;;;5111313;27;20848;-77
2022/10/02 08:09:15;;;;;;;6.23;3.20;;;13.90;99.90;;;;;;5126322;27;20455;-76
2022/10/02 08:12:08;;;;;;;4.20;2.23;;;13.90;99.90;;;;;;5108151;27;20443;-75
2022/10/02 08:14:55;;;;;;;2.90;1.90;;;13.90;99.90;;;;;;5115142;27;20448;-76
2022/10/02 08:17:48;;;;;;;4.17;1.70;;;13.90;99.90;;;;;;5121180;27;20485;-77
2022/10/02 08:20:39;;;;;;;3.57;1.70;;;13.90;99.90;;;;;;5116354;27;20415;-77
2022/10/02 08:23:30;;;;;;;5.23;1.50;;;13.90;99.90;;;;;;5100472;28;20575;-77
2022/10/02 08:26:21;;;;;;;2.93;1.50;;;14.00;99.90;;;;;;5112223;27;20468;-77
2022/10/02 08:29:11;;;;;;;3.93;1.00;;;14.00;99.90;;;;;;5120631;28;20912;-77
2022/10/02 08:31:57;;;;;;;2.80;1.57;;;14.00;99.90;;;;;;5112243;28;20415;-77
2022/10/02 08:34:44;;;;;;;1.73;1.27;;;14.00;99.90;;;;;;5114422;28;20431;-77
2022/10/02 08:37:41;;;;;;;3.37;1.60;;;14.00;99.90;;;;;;5108849;28;20419;-76
2022/10/02 08:41:14;;;;;;;3.13;1.20;;;14.00;99.90;;;;;;5119258;28;20559;-77
2022/10/02 08:44:26;;;;;;;2.47;1.10;;;14.00;99.90;;;;;;5075730;28;20452;-76
2022/10/02 08:47:54;;;;;;;2.03;1.37;;;14.10;99.90;;;;;;5112503;28;20451;-75
2022/10/02 08:51:29;;;;;;;3.40;1.23;;;14.20;99.90;;;;;;5115581;28;20805;-77
2022/10/02 08:54:40;;;;;;;2.80;1.60;;;14.20;99.90;;;;;;5090503;28;20983;-76
2022/10/02 08:58:17;;;;;;;3.13;1.77;;;14.20;99.90;;;;;;5108237;28;20440;-77
2022/10/02 09:01:20;;;;;;;1.80;1.10;;;14.20;99.90;;;;;;5082708;28;20555;-76
2022/10/02 09:04:57;;;;;;;1.80;1.30;;;14.20;99.90;;;;;;5118183;28;20419;-77
2022/10/02 09:08:15;;;;;;;1.90;1.40;;;14.30;99.90;;;;;;5047916;28;20630;-77
2022/10/02 09:11:43;;;;;;;1.70;1.10;;;14.40;99.90;;;;;;5085613;28;20532;-77
2022/10/02 09:14:46;;;;;;;3.07;1.73;;;14.40;99.90;;;;;;5078290;28;20916;-77
2022/10/02 09:18:00;;;;;;;1.50;1.00;;;14.40;99.90;;;;;;5105736;28;20419;-77
2022/10/02 09:21:10;;;;;;;2.13;1.60;;;14.40;99.90;;;;;;5110821;28;20545;-75
2022/10/02 09:24:28;;;;;;;2.60;1.63;;;14.30;99.90;;;;;;5104425;28;20445;-77
2022/10/02 09:27:37;;;;;;;2.07;1.50;;;14.30;99.90;;;;;;5115296;28;20477;-77
2022/10/02 09:30:46;;;;;;;2.47;1.40;;;14.30;99.90;;;;;;5107611;27;21030;-77
2022/10/02 09:34:02;;;;;;;2.83;1.60;;;14.20;99.90;;;;;;5111377;27;20599;-77
2022/10/02 09:37:19;;;;;;;4.23;2.80;;;14.30;99.90;;;;;;5120213;27;20436;-77
2022/10/02 09:40:47;;;;;;;3.90;2.33;;;14.30;99.90;;;;;;5120957;27;20460;-77
2022/10/02 09:44:07;;;;;;;3.00;2.03;;;14.30;99.90;;;;;;5072785;28;20431;-77
2022/10/02 09:47:22;;;;;;;1.93;1.63;;;14.40;99.90;;;;;;5110514;27;20447;-77
2022/10/02 09:50:33;;;;;;;2.43;1.80;;;14.40;99.90;;;;;;5119522;27;20439;-77
2022/10/02 09:54:05;;;;;;;2.83;1.80;;;14.50;99.90;;;;;;5115215;27;20996;-77
2022/10/02 09:57:27;;;;;;;2.40;1.87;;;14.50;99.90;;;;;;5085854;27;20774;-77
2022/10/02 10:00:25;;;;;;;2.50;2.00;;;14.50;99.90;;;;;;5114984;27;20507;-76
2022/10/02 10:03:35;;;;;;;3.67;1.97;;;14.50;99.90;;;;;;5113009;27;20423;-77
2022/10/02 10:06:50;;;;;;;2.87;1.90;;;14.40;99.90;;;;;;5116814;27;20469;-77
2022/10/02 10:10:09;;;;;;;7.23;4.30;;;14.30;99.90;;;;;;5111319;27;20443;-77
2022/10/02 10:13:41;;;;;;;15.17;7.57;;;14.30;99.90;;;;;;5105703;27;20440;-77
2022/10/02 10:17:10;;;;;;;2.97;1.90;;;14.30;99.90;;;;;;5092913;27;21002;-75
2022/10/02 10:20:35;;;;;;;3.90;1.87;;;14.20;99.90;;;;;;5122353;27;20540;-77
2022/10/02 10:23:40;;;;;;;2.30;1.50;;;14.20;99.90;;;;;;5075424;27;20431;-77
2022/10/02 10:26:47;;;;;;;13.20;7.23;;;14.10;99.90;;;;;;5114486;27;20529;-77
2022/10/02 10:30:04;;;;;;;3.13;2.00;;;14.00;99.90;;;;;;5121635;27;20471;-76
2022/10/02 10:33:24;;;;;;;6.90;3.17;;;14.10;99.90;;;;;;5115489;27;20973;-76
2022/10/02 10:40:24;;;;;;;4.90;2.00;;;14.10;99.90;;;;;;5044005;27;20490;-75
2022/10/02 10:43:41;;;;;;;2.70;1.63;;;14.20;99.90;;;;;;5115023;27;20400;-76
2022/10/02 10:46:44;;;;;;;2.50;1.50;;;14.20;99.90;;;;;;5119145;27;20423;-76
2022/10/02 10:50:01;;;;;;;10.07;5.40;;;14.20;99.90;;;;;;5119945;27;20447;-75
2022/10/02 10:53:10;;;;;;;5.97;2.90;;;14.20;99.90;;;;;;5119025;27;20407;-76
2022/10/02 10:56:46;;;;;;;14.83;4.63;;;14.00;99.90;;;;;;5126204;27;20407;-75
2022/10/02 11:00:14;;;;;;;2.47;1.63;;;14.00;99.90;;;;;;5041184;28;20514;-76
2022/10/02 11:03:32;;;;;;;4.53;3.33;;;14.10;99.90;;;;;;5118291;27;20403;-75
2022/10/02 11:06:44;;;;;;;3.40;1.90;;;14.10;99.90;;;;;;5113211;27;20460;-76
2022/10/02 11:09:52;;;;;;;3.13;1.90;;;14.20;99.90;;;;;;5105784;27;20896;-75
2022/10/02 11:13:22;;;;;;;6.47;4.13;;;14.30;99.90;;;;;;5114382;27;20403;-75
2022/10/02 11:16:42;;;;;;;4.00;2.43;;;14.40;99.90;;;;;;5123067;27;20811;-76
2022/10/02 11:19:49;;;;;;;28.53;14.87;;;14.30;99.90;;;;;;5115089;27;20446;-75
2022/10/02 11:23:11;;;;;;;2.97;1.80;;;14.20;99.90;;;;;;5113109;27;20527;-74
2022/10/02 11:26:26;;;;;;;6.83;3.90;;;14.10;99.90;;;;;;5113433;27;20491;-75
2022/10/02 11:29:35;;;;;;;7.10;3.70;;;14.10;99.90;;;;;;5115436;27;20455;-75
2022/10/02 11:32:53;;;;;;;3.60;2.20;;;14.20;99.90;;;;;;5107448;27;20407;-75
2022/10/02 11:35:52;;;;;;;4.33;2.57;;;14.30;99.90;;;;;;5122150;27;20428;-76
2022/10/02 11:39:03;;;;;;;3.10;2.07;;;14.30;99.90;;;;;;5121381;27;20855;-75
2022/10/02 11:42:22;;;;;;;4.00;2.23;;;14.30;99.90;;;;;;5109423;27;20437;-76
2022/10/02 11:45:40;;;;;;;3.10;2.07;;;14.30;99.90;;;;;;5130449;27;20407;-76
2022/10/02 11:48:55;;;;;;;6.43;3.77;;;14.40;99.90;;;;;;5116479;27;20477;-74
2022/10/02 11:51:51;;;;;;;7.37;4.23;;;14.30;99.90;;;;;;5102487;28;20436;-76
2022/10/02 11:54:49;;;;;;;5.67;3.43;;;14.40;99.90;;;;;;5117809;27;20949;-76
2022/10/02 11:57:47;;;;;;;4.53;2.63;;;14.50;99.90;;;;;;5124097;27;20781;-76
2022/10/02 12:01:09;;;;;;;5.23;3.13;;;14.60;99.90;;;;;;5101925;27;20506;-75
2022/10/02 12:04:08;;;;;;;14.00;5.87;;;14.50;99.90;;;;;;5109348;27;20449;-74
2022/10/02 12:07:16;;;;;;;7.20;3.30;;;14.60;99.90;;;;;;5103813;28;20618;-75
2022/10/02 12:10:35;;;;;;;8.13;4.47;;;14.40;99.90;;;;;;5119055;27;20468;-77
2022/10/02 12:13:53;;;;;;;5.97;2.20;;;14.30;99.90;;;;;;5116742;27;20398;-76
2022/10/02 12:16:55;;;;;;;3.20;1.67;;;14.40;99.90;;;;;;5121782;27;20585;-77
2022/10/02 12:29:39;;;;;;;1.93;1.37;;;14.50;99.90;;;;;;5119006;27;20411;-77
2022/10/02 12:33:06;;;;;;;4.77;2.90;;;14.60;99.90;;;;;;5123221;28;20440;-76
2022/10/02 12:36:10;;;;;;;3.50;1.90;;;14.70;99.90;;;;;;5099550;28;20422;-77
2022/10/02 12:39:08;;;;;;;3.10;2.00;;;14.60;99.90;;;;;;5111766;28;20955;-76
2022/10/02 12:42:10;;;;;;;2.20;1.60;;;14.60;99.90;;;;;;5108801;28;20396;-77
2022/10/02 12:45:18;;;;;;;2.83;1.80;;;14.60;99.90;;;;;;5112523;28;20418;-77
2022/10/02 12:48:13;;;;;;;3.17;1.40;;;14.60;99.90;;;;;;5121756;28;20446;-77
2022/10/02 12:51:28;;;;;;;2.10;1.43;;;14.70;99.90;;;;;;5126333;28;20501;-77
2022/10/02 12:54:52;;;;;;;2.30;1.60;;;14.80;99.90;;;;;;5111886;28;20415;-77
2022/10/02 12:58:02;;;;;;;15.20;9.40;;;14.80;99.90;;;;;;5101621;28;20482;-77
2022/10/02 13:01:15;;;;;;;6.00;2.23;;;14.80;99.90;;;;;;5121523;28;20403;-77
2022/10/02 13:04:21;;;;;;;2.77;1.63;;;14.80;99.90;;;;;;5072958;28;20907;-77
2022/10/02 13:07:45;;;;;;;3.30;2.27;;;14.80;99.90;;;;;;5124597;27;20785;-76
2022/10/02 13:10:38;;;;;;;2.33;1.60;;;14.80;99.90;;;;;;5125028;27;20755;-77
2022/10/02 13:13:56;;;;;;;1.87;1.20;;;14.80;99.90;;;;;;5104561;27;20993;-77
2022/10/02 13:17:11;;;;;;;2.87;1.37;;;14.90;99.90;;;;;;5120302;27;20472;-77
2022/10/02 13:20:13;;;;;;;2.17;1.30;;;14.90;99.90;;;;;;5128558;27;21018;-76
2022/10/02 13:23:09;;;;;;;1.97;1.17;;;15.00;99.90;;;;;;5120095;27;20897;-77
2022/10/02 13:26:03;;;;;;;1.60;0.90;;;14.90;99.90;;;;;;5123646;27;20407;-77
2022/10/02 13:29:09;;;;;;;4.13;1.20;;;14.70;99.90;;;;;;5133584;27;20605;-77
2022/10/02 13:32:18;;;;;;;2.90;1.43;;;14.70;99.90;;;;;;5128176;27;20432;-77
2022/10/02 13:35:23;;;;;;;1.73;1.17;;;14.60;99.90;;;;;;5110076;27;20435;-77
2022/10/02 13:38:26;;;;;;;1.70;1.10;;;14.60;99.90;;;;;;5134054;27;20423;-77
2022/10/02 13:41:26;;;;;;;2.30;1.40;;;14.60;99.90;;;;;;5126479;27;20493;-77
2022/10/02 13:44:24;;;;;;;4.53;2.37;;;14.60;99.90;;;;;;5120575;27;20548;-77
2022/10/02 13:47:26;;;;;;;11.10;1.80;;;14.60;99.90;;;;;;5131440;27;20480;-77
2022/10/02 13:50:31;;;;;;;2.60;1.40;;;14.70;99.90;;;;;;5120880;27;20532;-77
2022/10/02 13:53:58;;;;;;;1.90;1.40;;;14.60;99.90;;;;;;5100473;27;20490;-77
2022/10/02 13:56:50;;;;;;;2.60;1.50;;;14.60;99.90;;;;;;5049729;28;20515;-77
2022/10/02 13:59:56;;;;;;;2.33;1.40;;;14.60;99.90;;;;;;5056372;28;20939;-77
2022/10/02 14:02:52;;;;;;;2.07;1.43;;;14.60;99.90;;;;;;5123318;27;20443;-77
2022/10/02 14:05:42;;;;;;;1.90;1.43;;;14.60;99.90;;;;;;5129021;27;20949;-77
2022/10/02 14:08:48;;;;;;;3.40;2.23;;;14.70;99.90;;;;;;5115725;27;20601;-77
2022/10/02 14:11:48;;;;;;;4.27;2.20;;;14.70;99.90;;;;;;5124182;27;20966;-77
2022/10/02 14:14:55;;;;;;;2.10;1.80;;;14.60;99.90;;;;;;5113820;27;20964;-75
2022/10/02 14:18:04;;;;;;;2.03;1.60;;;14.60;99.90;;;;;;5124629;27;20449;-75
2022/10/02 14:20:58;;;;;;;3.97;2.20;;;14.70;99.90;;;;;;5122224;27;20752;-75
2022/10/02 14:24:11;;;;;;;2.23;1.77;;;14.80;99.90;;;;;;5109235;27;20447;-77
2022/10/02 14:27:06;;;;;;;2.80;2.30;;;14.70;99.90;;;;;;5112340;27;20797;-76
2022/10/02 14:29:59;;;;;;;7.97;3.07;;;14.80;99.90;;;;;;5115866;27;20522;-76
2022/10/02 14:32:58;;;;;;;3.07;2.17;;;14.80;99.90;;;;;;5105594;27;20523;-76
2022/10/02 14:35:54;;;;;;;3.70;2.80;;;14.80;99.90;;;;;;5119332;27;20862;-76
2022/10/02 14:39:00;;;;;;;7.17;3.10;;;14.80;99.90;;;;;;5106548;27;20443;-77
2022/10/02 14:41:59;;;;;;;4.70;2.40;;;14.80;99.90;;;;;;5110905;27;20435;-76
2022/10/02 14:45:20;;;;;;;3.63;2.70;;;14.90;99.90;;;;;;5109370;27;20569;-77
2022/10/02 14:48:21;;;;;;;2.53;2.27;;;14.90;99.90;;;;;;5127794;27;20546;-76
2022/10/02 14:51:20;;;;;;;2.47;2.10;;;14.80;99.90;;;;;;5128290;27;20456;-75
2022/10/02 14:54:20;;;;;;;3.10;2.43;;;14.90;99.90;;;;;;5119883;27;20473;-75
2022/10/02 14:57:21;;;;;;;6.17;2.67;;;14.90;99.90;;;;;;5114786;27;20984;-77
2022/10/02 15:00:18;;;;;;;3.70;2.50;;;14.80;99.90;;;;;;5114431;27;20545;-76
2022/10/02 15:03:24;;;;;;;4.93;3.13;;;14.80;99.90;;;;;;5109261;27;20418;-76
2022/10/02 15:06:22;;;;;;;5.17;3.40;;;14.70;99.90;;;;;;5110736;27;20658;-76
2022/10/02 15:09:15;;;;;;;6.70;3.57;;;14.80;99.90;;;;;;5114043;27;20483;-76
2022/10/02 15:12:09;;;;;;;3.73;3.33;;;14.80;99.90;;;;;;5111754;27;20814;-76
2022/10/02 15:15:06;;;;;;;4.70;3.80;;;14.80;99.90;;;;;;5112363;27;20443;-76
2022/10/02 15:18:02;;;;;;;4.60;3.63;;;14.70;99.90;;;;;;5117507;27;20943;-76
2022/10/02 15:20:58;;;;;;;3.57;3.27;;;14.70;99.90;;;;;;5118282;27;20555;-76
2022/10/02 15:23:46;;;;;;;4.60;3.00;;;14.70;99.90;;;;;;5106208;27;20506;-76
2022/10/02 15:26:48;;;;;;;4.10;3.67;;;14.70;99.90;;;;;;5109287;27;20464;-76
2022/10/02 15:29:44;;;;;;;6.30;3.93;;;14.60;99.90;;;;;;5112852;27;20475;-76
2022/10/02 15:32:43;;;;;;;5.30;3.30;;;14.60;99.90;;;;;;5112718;27;20538;-76
2022/10/02 15:35:41;;;;;;;5.43;4.93;;;14.60;99.90;;;;;;5121973;27;20785;-76
2022/10/02 15:38:57;;;;;;;5.40;4.77;;;14.60;99.90;;;;;;5115269;27;20467;-77
2022/10/02 15:41:48;;;;;;;4.90;4.40;;;14.50;99.90;;;;;;5104768;27;21100;-76
2022/10/02 15:45:09;;;;;;;5.33;4.10;;;14.50;99.90;;;;;;5119401;27;20456;-76
2022/10/02 15:48:18;;;;;;;10.00;4.67;;;14.50;99.90;;;;;;5108878;27;20473;-76
2022/10/02 15:51:16;;;;;;;4.93;4.10;;;14.50;99.90;;;;;;5107058;27;21042;-76